createdAt,value
2022-08-17T00:01:37.864Z,22.57
2022-08-17T00:04:19.135Z,22.60
2022-08-17T00:06:46.052Z,22.35
2022-08-17T00:09:18.322Z,22.39
2022-08-17T00:12:40.695Z,22.32
2022-08-17T00:14:35.002Z,22.48
2022-08-17T00:17:03.670Z,22.48
2022-08-17T00:19:30.327Z,22.56
2022-08-17T00:22:35.053Z,22.51
2022-08-17T00:24:46.961Z,22.64
2022-08-17T00:27:13.504Z,22.58
2022-08-17T00:29:40.119Z,22.58
2022-08-17T00:33:14.778Z,22.58
2022-08-17T00:34:53.399Z,22.60
2022-08-17T00:37:19.993Z,22.58
2022-08-17T00:39:46.554Z,22.64
2022-08-17T00:42:19.013Z,22.57
2022-08-17T00:44:46.215Z,22.40
2022-08-17T00:47:13.925Z,22.31
2022-08-17T00:49:40.547Z,22.24
2022-08-17T00:52:16.549Z,22.09
2022-08-17T00:54:46.952Z,22.05
2022-08-17T00:57:20.040Z,22.03
2022-08-17T00:59:55.926Z,21.97
2022-08-17T01:02:40.391Z,21.93
2022-08-17T01:08:57.479Z,21.83
2022-08-17T01:11:24.588Z,21.85
2022-08-17T01:13:51.380Z,21.84
2022-08-17T01:16:27.896Z,21.81
2022-08-17T01:19:00.832Z,21.80
2022-08-17T01:21:46.884Z,21.81
2022-08-17T01:24:13.575Z,21.84
2022-08-17T01:26:42.236Z,21.82
2022-08-17T01:29:09.859Z,21.76
2022-08-17T01:31:41.477Z,21.73
2022-08-17T01:34:10.202Z,21.73
2022-08-17T01:36:39.489Z,21.68
2022-08-17T01:39:11.698Z,21.63
2022-08-17T01:41:40.978Z,21.57
2022-08-17T01:44:09.753Z,21.53
2022-08-17T01:46:36.978Z,21.44
2022-08-17T01:49:08.834Z,21.42
2022-08-17T01:51:35.548Z,21.45
2022-08-17T01:54:05.397Z,21.46
2022-08-17T01:56:33.695Z,21.44
2022-08-17T01:59:00.209Z,21.44
2022-08-17T02:01:29.252Z,21.41
2022-08-17T02:04:00.955Z,21.40
2022-08-17T02:06:52.522Z,21.33
2022-08-17T02:09:23.974Z,21.30
2022-08-17T02:11:54.361Z,21.29
2022-08-17T02:14:21.553Z,21.30
2022-08-17T02:16:48.062Z,21.25
2022-08-17T02:19:16.761Z,21.30
2022-08-17T02:21:46.133Z,21.28
2022-08-17T02:25:00.858Z,21.20
2022-08-17T02:27:07.735Z,21.19
2022-08-17T02:29:34.417Z,21.17
2022-08-17T02:32:01.824Z,21.13
2022-08-17T02:34:28.874Z,21.11
2022-08-17T02:36:55.565Z,21.08
2022-08-17T02:39:22.075Z,21.09
2022-08-17T02:41:48.931Z,21.08
2022-08-17T02:44:39.443Z,21.11
2022-08-17T02:47:03.525Z,21.06
2022-08-17T02:49:30.181Z,21.11
2022-08-17T02:51:58.522Z,21.07
2022-08-17T02:54:40.290Z,21.11
2022-08-17T02:57:09.784Z,21.07
2022-08-17T02:59:36.627Z,21.06
2022-08-17T03:02:04.304Z,21.05
2022-08-17T03:04:31.202Z,21.05
2022-08-17T03:07:02.140Z,20.94
2022-08-17T03:09:28.631Z,21.03
2022-08-17T03:11:56.081Z,21.02
2022-08-17T03:14:26.257Z,21.01
2022-08-17T03:16:52.987Z,21.02
2022-08-17T03:19:19.546Z,21.00
2022-08-17T03:21:46.032Z,21.04
2022-08-17T03:24:21.502Z,21.00
2022-08-17T03:26:55.071Z,20.94
2022-08-17T03:29:21.561Z,20.93
2022-08-17T03:31:49.687Z,20.94
2022-08-17T03:34:17.351Z,20.90
2022-08-17T03:36:44.002Z,20.92
2022-08-17T03:39:10.854Z,20.91
2022-08-17T03:41:38.819Z,20.92
2022-08-17T03:44:05.343Z,20.89
2022-08-17T03:46:50.003Z,20.85
2022-08-17T03:49:34.992Z,20.86
2022-08-17T03:52:21.307Z,20.82
2022-08-17T03:55:06.356Z,20.86
2022-08-17T03:57:32.912Z,20.88
2022-08-17T03:59:59.803Z,20.87
2022-08-17T04:02:32.162Z,20.80
2022-08-17T04:04:59.609Z,20.80
2022-08-17T04:07:28.256Z,20.82
2022-08-17T04:09:55.133Z,20.81
2022-08-17T04:12:23.623Z,20.73
2022-08-17T04:14:53.445Z,20.78
2022-08-17T04:17:27.282Z,20.82
2022-08-17T04:19:55.037Z,20.80
2022-08-17T04:22:32.817Z,20.90
2022-08-17T04:25:17.897Z,20.86
2022-08-17T04:27:44.565Z,20.80
2022-08-17T04:30:12.183Z,20.80
2022-08-17T04:33:11.805Z,20.88
2022-08-17T04:35:41.854Z,20.85
2022-08-17T04:38:11.987Z,20.88
2022-08-17T04:40:57.333Z,20.98
2022-08-17T04:43:26.603Z,21.33
2022-08-17T04:45:57.259Z,21.38
2022-08-17T04:48:36.863Z,21.83
2022-08-17T04:51:10.528Z,21.91
2022-08-17T04:53:38.826Z,21.83
2022-08-17T04:56:05.917Z,21.75
2022-08-17T04:58:32.907Z,21.70
2022-08-17T05:00:59.851Z,21.58
2022-08-17T05:03:26.433Z,21.57
2022-08-17T05:05:53.668Z,21.60
2022-08-17T05:08:20.968Z,21.60
2022-08-17T05:10:48.497Z,21.66
2022-08-17T05:13:18.872Z,21.67
2022-08-17T05:15:48.128Z,21.69
2022-08-17T05:18:16.741Z,21.71
2022-08-17T05:20:43.729Z,21.71
2022-08-17T05:23:13.099Z,21.81
2022-08-17T05:25:43.347Z,21.79
2022-08-17T05:28:15.159Z,21.84
2022-08-17T05:30:43.667Z,21.87
2022-08-17T05:33:14.151Z,21.92
2022-08-17T05:35:43.994Z,21.99
2022-08-17T05:38:10.895Z,22.01
2022-08-17T05:40:38.288Z,22.13
2022-08-17T05:43:17.010Z,22.19
2022-08-17T05:45:55.177Z,22.25
2022-08-17T05:48:35.677Z,22.24
2022-08-17T05:51:44.074Z,22.31
2022-08-17T05:54:26.384Z,22.26
2022-08-17T05:57:00.092Z,22.35
2022-08-17T05:59:48.689Z,22.43
2022-08-17T06:02:50.790Z,22.50
2022-08-17T06:05:36.966Z,22.58
2022-08-17T06:08:09.936Z,22.63
2022-08-17T06:10:46.935Z,22.69
2022-08-17T06:13:25.324Z,22.52
2022-08-17T06:16:33.152Z,22.71
2022-08-17T06:19:16.987Z,21.55
2022-08-17T06:21:47.679Z,21.69
2022-08-17T06:24:37.647Z,22.56
2022-08-17T06:27:31.173Z,22.99
2022-08-17T06:30:09.285Z,23.08
2022-08-17T06:32:43.580Z,23.23
2022-08-17T06:35:27.780Z,23.33
2022-08-17T06:38:10.394Z,23.31
2022-08-17T06:41:13.159Z,23.35
2022-08-17T06:44:06.500Z,23.59
2022-08-17T06:46:41.381Z,23.62
2022-08-17T06:49:21.866Z,23.82
2022-08-17T06:52:00.185Z,24.20
2022-08-17T06:54:56.444Z,24.46
2022-08-17T06:57:29.445Z,24.56
2022-08-17T06:59:59.347Z,24.68
2022-08-17T07:02:51.544Z,24.91
2022-08-17T07:05:23.676Z,25.19
2022-08-17T07:08:04.631Z,25.47
2022-08-17T07:10:54.812Z,25.40
2022-08-17T07:13:21.229Z,25.48
2022-08-17T07:15:56.954Z,25.70
2022-08-17T07:18:26.214Z,25.61
2022-08-17T07:20:59.773Z,26.13
2022-08-17T07:23:37.791Z,26.44
2022-08-17T07:26:09.097Z,26.76
2022-08-17T07:28:37.030Z,26.74
2022-08-17T07:31:04.838Z,27.37
2022-08-17T07:33:34.150Z,27.84
2022-08-17T07:36:01.547Z,28.09
2022-08-17T07:38:35.531Z,28.38
2022-08-17T07:41:06.525Z,28.37
2022-08-17T07:43:41.946Z,28.72
2022-08-17T07:46:30.251Z,28.72
2022-08-17T07:49:17.980Z,28.46
2022-08-17T07:51:44.369Z,28.75
2022-08-17T07:54:21.361Z,29.10
2022-08-17T07:57:20.175Z,28.60
2022-08-17T08:00:12.734Z,29.00
2022-08-17T08:02:45.984Z,29.20
2022-08-17T08:05:44.292Z,29.88
2022-08-17T08:08:33.231Z,30.58
2022-08-17T08:11:02.852Z,30.57
2022-08-17T08:13:32.199Z,29.87
2022-08-17T08:16:24.663Z,29.12
2022-08-17T08:18:58.017Z,29.29
2022-08-17T08:21:49.079Z,29.66
2022-08-17T08:24:24.687Z,30.59
2022-08-17T08:27:15.941Z,30.51
2022-08-17T08:29:47.315Z,31.42
2022-08-17T08:32:24.456Z,31.67
2022-08-17T08:35:02.608Z,32.05
2022-08-17T08:37:42.884Z,31.35
2022-08-17T08:40:27.889Z,31.93
2022-08-17T08:43:09.355Z,31.78
2022-08-17T08:45:35.879Z,32.57
2022-08-17T08:48:56.395Z,33.05
2022-08-17T08:51:27.689Z,33.41
2022-08-17T08:54:15.783Z,32.57
2022-08-17T09:00:02.987Z,33.59
2022-08-17T09:02:44.549Z,34.37
2022-08-17T09:05:28.088Z,34.28
2022-08-17T09:07:58.618Z,33.66
2022-08-17T09:10:56.010Z,33.37
2022-08-17T09:13:40.735Z,32.68
2022-08-17T09:16:18.189Z,33.16
2022-08-17T09:19:03.606Z,32.10
2022-08-17T09:21:52.661Z,32.64
2022-08-17T09:24:43.385Z,33.51
2022-08-17T09:27:18.615Z,34.12
2022-08-17T09:29:51.551Z,33.00
2022-08-17T09:32:42.617Z,33.55
2022-08-17T09:35:14.494Z,34.27
2022-08-17T09:38:00.426Z,34.64
2022-08-17T09:40:45.392Z,34.63
2022-08-17T09:43:36.387Z,35.30
2022-08-17T09:46:11.404Z,35.51
2022-08-17T09:48:44.693Z,35.09
2022-08-17T09:51:22.984Z,34.38
2022-08-17T09:53:50.632Z,33.63
2022-08-17T09:56:42.307Z,33.54
2022-08-17T09:59:38.212Z,34.45
2022-08-17T10:02:25.158Z,33.63
2022-08-17T10:04:57.877Z,34.16
2022-08-17T10:07:57.605Z,34.72
2022-08-17T10:10:32.488Z,34.81
2022-08-17T10:13:18.408Z,35.06
2022-08-17T10:15:56.212Z,35.31
2022-08-17T10:18:22.648Z,35.88
2022-08-17T10:21:19.897Z,35.59
2022-08-17T10:24:11.329Z,34.11
2022-08-17T10:26:55.774Z,34.37
2022-08-17T10:29:28.926Z,34.05
2022-08-17T10:32:04.126Z,33.73
2022-08-17T10:35:04.299Z,33.80
2022-08-17T10:37:57.310Z,33.65
2022-08-17T10:40:36.830Z,33.24
2022-08-17T10:43:32.945Z,33.30
2022-08-17T10:46:30.198Z,30.38
2022-08-17T10:49:16.659Z,31.18
2022-08-17T10:51:45.905Z,32.00
2022-08-17T10:54:24.581Z,32.09
2022-08-17T10:56:53.947Z,32.88
2022-08-17T10:59:35.514Z,33.39
2022-08-17T11:02:04.832Z,33.81
2022-08-17T11:05:00.453Z,33.98
2022-08-17T11:07:48.300Z,34.06
2022-08-17T11:10:52.262Z,34.05
2022-08-17T11:13:25.894Z,34.42
2022-08-17T11:16:08.367Z,32.52
2022-08-17T11:19:05.125Z,32.06
2022-08-17T11:21:59.026Z,31.98
2022-08-17T11:24:40.455Z,31.70
2022-08-17T11:27:20.003Z,31.23
2022-08-17T11:30:02.767Z,31.29
2022-08-17T11:32:47.627Z,31.38
2022-08-17T11:35:21.174Z,32.14
2022-08-17T11:37:52.251Z,31.22
2022-08-17T11:40:21.400Z,31.37
2022-08-17T11:43:00.359Z,32.75
2022-08-17T11:45:33.039Z,32.71
2022-08-17T11:48:34.658Z,32.84
2022-08-17T11:51:33.698Z,33.81
2022-08-17T11:54:31.040Z,34.76
2022-08-17T11:56:51.782Z,35.50
2022-08-17T11:59:32.667Z,35.73
2022-08-17T12:02:03.901Z,35.58
2022-08-17T12:04:33.360Z,34.71
2022-08-17T12:07:21.179Z,34.59
2022-08-17T12:09:50.878Z,34.53
2022-08-17T12:12:22.464Z,34.14
2022-08-17T12:15:11.491Z,33.54
2022-08-17T12:17:42.659Z,33.31
2022-08-17T12:20:23.348Z,32.86
2022-08-17T12:23:01.033Z,32.97
2022-08-17T12:25:34.286Z,32.33
2022-08-17T12:28:06.291Z,31.14
2022-08-17T12:30:35.246Z,30.87
2022-08-17T12:33:01.795Z,31.29
2022-08-17T12:35:35.198Z,31.11
2022-08-17T12:38:03.410Z,31.22
2022-08-17T12:40:32.170Z,31.84
2022-08-17T12:43:01.796Z,31.68
2022-08-17T12:45:31.238Z,31.64
2022-08-17T12:48:04.077Z,32.04
2022-08-17T12:50:32.185Z,31.85
2022-08-17T12:53:02.485Z,31.92
2022-08-17T12:55:35.648Z,31.09
2022-08-17T12:58:02.474Z,31.23
2022-08-17T13:00:31.695Z,31.23
2022-08-17T13:03:19.109Z,31.34
2022-08-17T13:06:10.422Z,31.51
2022-08-17T13:08:43.053Z,31.40
2022-08-17T13:11:20.126Z,31.43
2022-08-17T13:13:56.103Z,31.14
2022-08-17T13:16:30.139Z,31.18
2022-08-17T13:19:20.213Z,31.25
2022-08-17T13:22:11.613Z,31.30
2022-08-17T13:24:38.957Z,31.16
2022-08-17T13:27:09.962Z,31.34
2022-08-17T13:29:39.348Z,31.50
2022-08-17T13:32:13.013Z,31.63
2022-08-17T13:35:13.031Z,30.84
2022-08-17T13:37:41.395Z,31.21
2022-08-17T13:40:09.214Z,31.91
2022-08-17T13:42:53.081Z,31.54
2022-08-17T13:45:36.754Z,31.30
2022-08-17T13:48:30.914Z,31.45
2022-08-17T13:50:57.322Z,31.30
2022-08-17T13:53:33.043Z,30.59
2022-08-17T13:56:07.321Z,30.66
2022-08-17T13:58:57.654Z,30.46
2022-08-17T14:01:32.541Z,30.57
2022-08-17T14:04:01.963Z,30.96
2022-08-17T14:06:51.828Z,30.83
2022-08-17T14:09:26.832Z,31.22
2022-08-17T14:11:54.821Z,31.15
2022-08-17T14:14:23.307Z,30.95
2022-08-17T14:16:51.652Z,31.02
2022-08-17T14:19:18.902Z,31.27
2022-08-17T14:21:46.530Z,31.40
2022-08-17T14:24:22.880Z,31.48
2022-08-17T14:26:52.010Z,31.71
2022-08-17T14:29:20.138Z,31.21
2022-08-17T14:31:53.260Z,31.16
2022-08-17T14:34:21.973Z,31.21
2022-08-17T14:36:48.846Z,30.79
2022-08-17T14:39:17.308Z,30.74
2022-08-17T14:41:43.874Z,30.85
2022-08-17T14:44:12.579Z,31.04
2022-08-17T14:46:40.830Z,31.32
2022-08-17T14:49:09.230Z,31.39
2022-08-17T14:51:43.741Z,30.79
2022-08-17T14:54:11.565Z,31.04
2022-08-17T14:57:23.437Z,30.74
2022-08-17T14:59:44.857Z,31.04
2022-08-17T15:02:11.767Z,31.26
2022-08-17T15:04:41.979Z,30.95
2022-08-17T15:07:11.518Z,30.21
2022-08-17T15:09:37.981Z,30.26
2022-08-17T15:12:06.542Z,30.07
2022-08-17T15:15:18.080Z,30.54
2022-08-17T15:17:46.137Z,30.70
2022-08-17T15:20:16.040Z,30.48
2022-08-17T15:22:44.316Z,30.52
2022-08-17T15:25:12.164Z,30.18
2022-08-17T15:27:39.004Z,30.27
2022-08-17T15:30:07.170Z,30.34
2022-08-17T15:32:38.005Z,30.29
2022-08-17T15:35:06.906Z,30.02
2022-08-17T15:37:33.450Z,30.16
2022-08-17T15:40:03.135Z,29.95
2022-08-17T15:42:29.873Z,30.11
2022-08-17T15:44:56.438Z,29.87
2022-08-17T15:47:23.340Z,29.95
2022-08-17T15:49:50.795Z,30.07
2022-08-17T15:52:24.150Z,30.13
2022-08-17T15:54:56.282Z,30.10
2022-08-17T15:57:25.869Z,29.93
2022-08-17T15:59:55.321Z,29.90
2022-08-17T16:03:16.082Z,29.51
2022-08-17T16:05:21.726Z,29.65
2022-08-17T16:07:51.415Z,29.86
2022-08-17T16:10:19.211Z,29.75
2022-08-17T16:12:47.624Z,29.87
2022-08-17T16:15:14.848Z,29.64
2022-08-17T16:17:41.519Z,29.90
2022-08-17T16:20:20.344Z,28.24
2022-08-17T16:22:49.146Z,28.62
2022-08-17T16:25:20.796Z,29.19
2022-08-17T16:27:50.456Z,29.33
2022-08-17T16:30:17.837Z,29.64
2022-08-17T16:32:45.832Z,29.54
2022-08-17T16:35:16.145Z,29.61
2022-08-17T16:37:45.395Z,29.70
2022-08-17T16:40:13.548Z,29.70
2022-08-17T16:42:40.657Z,29.74
2022-08-17T16:45:13.207Z,29.68
2022-08-17T16:47:41.810Z,29.74
2022-08-17T16:50:11.688Z,29.84
2022-08-17T16:52:38.990Z,29.88
2022-08-17T16:55:07.992Z,29.85
2022-08-17T16:57:37.301Z,29.76
2022-08-17T17:00:16.837Z,29.64
2022-08-17T17:02:49.598Z,29.67
2022-08-17T17:05:19.298Z,29.64
2022-08-17T17:08:09.028Z,29.70
2022-08-17T17:10:38.776Z,29.82
2022-08-17T17:13:13.109Z,29.74
2022-08-17T17:16:17.585Z,29.77
2022-08-17T17:19:10.089Z,29.63
2022-08-17T17:22:00.932Z,29.34
2022-08-17T17:24:52.443Z,29.34
2022-08-17T17:27:21.607Z,29.21
2022-08-17T17:30:01.732Z,29.07
2022-08-17T17:32:38.071Z,28.92
2022-08-17T17:35:17.106Z,28.68
2022-08-17T17:37:46.449Z,28.71
2022-08-17T17:40:21.403Z,28.65
2022-08-17T17:42:51.634Z,28.85
2022-08-17T17:45:26.053Z,28.76
2022-08-17T17:47:53.247Z,28.64
2022-08-17T17:50:27.858Z,28.63
2022-08-17T17:53:35.026Z,28.64
2022-08-17T17:56:43.812Z,28.59
2022-08-17T17:59:41.839Z,28.55
2022-08-17T18:02:51.858Z,28.62
2022-08-17T18:05:37.035Z,28.43
2022-08-17T18:08:34.068Z,28.42
2022-08-17T18:11:25.988Z,28.39
2022-08-17T18:14:39.589Z,28.44
2022-08-17T18:17:06.374Z,28.46
2022-08-17T18:19:33.230Z,28.51
2022-08-17T18:22:14.187Z,28.60
2022-08-17T18:24:44.149Z,28.57
2022-08-17T18:27:50.294Z,28.47
2022-08-17T18:30:16.846Z,28.53
2022-08-17T18:32:46.466Z,28.41
2022-08-17T18:35:14.246Z,28.39
2022-08-17T18:37:55.888Z,28.30
2022-08-17T18:40:35.049Z,28.23
2022-08-17T18:43:12.593Z,28.08
2022-08-17T18:45:47.101Z,28.06
2022-08-17T18:48:22.657Z,27.97
2022-08-17T18:50:53.374Z,28.04
2022-08-17T18:53:37.528Z,27.91
2022-08-17T18:56:30.479Z,27.85
2022-08-17T18:59:06.134Z,27.84
2022-08-17T19:01:52.739Z,27.86
2022-08-17T19:04:37.903Z,27.72
2022-08-17T19:07:12.570Z,27.74
2022-08-17T19:09:45.500Z,27.63
2022-08-17T19:12:27.228Z,27.69
2022-08-17T19:14:56.273Z,27.72
2022-08-17T19:17:31.966Z,27.65
2022-08-17T19:20:12.503Z,27.73
2022-08-17T19:22:46.879Z,27.75
2022-08-17T19:25:18.774Z,27.71
2022-08-17T19:27:57.784Z,27.58
2022-08-17T19:30:25.338Z,27.58
2022-08-17T19:32:53.011Z,27.48
2022-08-17T19:35:24.631Z,27.43
2022-08-17T19:38:12.997Z,27.49
2022-08-17T19:40:52.627Z,27.48
2022-08-17T19:43:54.688Z,27.21
2022-08-17T19:46:35.578Z,27.20
2022-08-17T19:49:34.481Z,27.10
2022-08-17T19:52:22.152Z,27.23
2022-08-17T19:55:08.924Z,27.18
2022-08-17T19:57:59.484Z,27.07
2022-08-17T20:00:26.093Z,26.97
2022-08-17T20:03:16.697Z,26.99
2022-08-17T20:06:13.712Z,26.84
2022-08-17T20:09:03.553Z,26.88
2022-08-17T20:11:49.195Z,26.78
2022-08-17T20:14:21.849Z,26.63
2022-08-17T20:16:48.445Z,26.59
2022-08-17T20:19:29.163Z,26.47
2022-08-17T20:22:17.608Z,26.50
2022-08-17T20:24:54.165Z,26.47
2022-08-17T20:27:45.352Z,26.45
2022-08-17T20:30:33.198Z,26.50
2022-08-17T20:33:02.230Z,26.39
2022-08-17T20:35:38.570Z,26.45
2022-08-17T20:38:08.498Z,26.40
2022-08-17T20:40:57.390Z,26.40
2022-08-17T20:43:29.792Z,26.41
2022-08-17T20:46:10.045Z,26.26
2022-08-17T20:48:44.512Z,26.13
2022-08-17T20:51:21.489Z,26.22
2022-08-17T20:53:48.036Z,26.19
2022-08-17T20:56:43.097Z,26.27
2022-08-17T20:59:30.275Z,26.38
2022-08-17T21:02:08.057Z,26.30
2022-08-17T21:04:51.293Z,26.38
2022-08-17T21:07:42.674Z,26.20
2022-08-17T21:10:33.988Z,26.19
2022-08-17T21:13:21.982Z,26.27
2022-08-17T21:16:15.067Z,26.11
2022-08-17T21:18:49.319Z,25.90
2022-08-17T21:21:25.923Z,25.85
2022-08-17T21:24:01.613Z,25.85
2022-08-17T21:26:50.418Z,25.79
2022-08-17T21:29:31.753Z,25.64
2022-08-17T21:31:59.179Z,25.50
2022-08-17T21:34:30.968Z,25.70
2022-08-17T21:37:19.865Z,25.49
2022-08-17T21:39:54.590Z,25.77
2022-08-17T21:42:31.602Z,25.40
2022-08-17T21:45:10.882Z,25.52
2022-08-17T21:47:45.213Z,25.34
2022-08-17T21:50:20.241Z,25.29
2022-08-17T21:52:48.436Z,25.31
2022-08-17T21:55:29.941Z,25.22
2022-08-17T21:58:13.518Z,25.47
2022-08-17T22:00:44.334Z,25.19
2022-08-17T22:03:23.717Z,25.26
2022-08-17T22:05:51.546Z,25.31
2022-08-17T22:08:20.629Z,25.21
2022-08-17T22:10:50.988Z,25.22
2022-08-17T22:13:17.785Z,25.21
2022-08-17T22:16:15.640Z,25.12
2022-08-17T22:18:54.319Z,25.09
2022-08-17T22:21:22.576Z,25.05
2022-08-17T22:24:04.305Z,24.96
2022-08-17T22:27:01.622Z,24.96
2022-08-17T22:30:00.549Z,24.99
2022-08-17T22:32:37.894Z,25.10
2022-08-17T22:35:28.654Z,24.86
2022-08-17T22:38:19.949Z,24.87
2022-08-17T22:40:49.783Z,24.82
2022-08-17T22:43:18.172Z,24.76
2022-08-17T22:45:53.611Z,24.69
2022-08-17T22:48:23.393Z,24.64
2022-08-17T22:51:14.168Z,24.59
2022-08-17T22:54:11.942Z,24.59
2022-08-17T22:57:05.435Z,24.58
2022-08-17T22:59:59.575Z,24.66
2022-08-17T23:02:31.541Z,24.76
2022-08-17T23:05:13.226Z,24.53
2022-08-17T23:07:45.758Z,24.51
2022-08-17T23:10:13.484Z,24.41
2022-08-17T23:12:40.423Z,24.53
2022-08-17T23:15:17.060Z,24.54
2022-08-17T23:17:45.040Z,24.51
2022-08-17T23:20:13.866Z,24.66
2022-08-17T23:22:51.370Z,24.62
2022-08-17T23:25:33.579Z,24.46
2022-08-17T23:28:01.864Z,24.82
2022-08-17T23:30:33.592Z,24.62
2022-08-17T23:33:15.665Z,24.80
2022-08-17T23:35:43.918Z,24.58
2022-08-17T23:38:11.892Z,24.62
2022-08-17T23:40:40.137Z,24.57
2022-08-17T23:43:23.709Z,24.57
2022-08-17T23:45:52.193Z,24.68
2022-08-17T23:48:35.678Z,24.57
2022-08-17T23:51:12.173Z,24.60
2022-08-17T23:53:44.004Z,24.38
2022-08-17T23:56:11.413Z,24.37
2022-08-17T23:58:40.128Z,24.48
